Time;durP1;ratioP1;P1;durP2;ratioP2;P2;SDS_P1;SDS_P2;PMS_P1;PMS_P2;Temp;Humidity;BMP_temperature;BMP_pressure;BME280_temperature;BME280_humidity;BME280_pressure;Samples;Min_cycle;Max_cycle;Signal;HPM_P1;HPM_P2
2022/07/29 00:00:23;;;;;;;10.63;2.25;;;11.50;99.90;;;10.40;100.00;101771.41;4945239;28;20498;-79
2022/07/29 00:02:49;;;;;;;;;;;11.50;99.90;;;10.35;100.00;101770.69;4957770;28;20474;-81
2022/07/29 00:05:15;;;;;;;9.88;2.45;;;11.50;99.90;;;10.32;100.00;101767.28;4992082;22;19959;-80
2022/07/29 00:07:41;;;;;;;10.90;2.58;;;11.40;99.90;;;10.27;100.00;101767.38;4941271;28;20049;-80
2022/07/29 00:10:11;;;;;;;12.48;2.40;;;11.40;99.90;;;10.26;100.00;101768.31;4934495;28;20060;-79
2022/07/29 00:12:37;;;;;;;9.52;2.15;;;11.40;99.90;;;10.24;100.00;101762.22;4978801;28;20037;-80
2022/07/29 00:15:04;;;;;;;10.25;2.13;;;11.30;99.90;;;10.20;100.00;101757.94;4956331;28;20038;-79
2022/07/29 00:17:29;;;;;;;8.45;2.90;;;11.30;99.90;;;10.17;100.00;101765.91;4930234;28;20051;-79
2022/07/29 00:19:55;;;;;;;10.45;2.50;;;11.30;99.90;;;10.17;100.00;101755.38;4913988;28;20038;-79
2022/07/29 00:22:21;;;;;;;12.05;2.45;;;11.30;99.90;;;10.19;100.00;101764.09;4925629;28;20466;-80
2022/07/29 00:24:54;;;;;;;12.98;2.75;;;11.30;99.90;;;10.19;100.00;101758.84;4947060;28;20038;-80
2022/07/29 00:27:23;;;;;;;13.23;2.80;;;11.30;99.90;;;10.15;100.00;101755.44;4908212;28;20042;-81
2022/07/29 00:29:49;;;;;;;12.30;2.78;;;11.20;99.90;;;10.09;100.00;101760.03;4930731;28;20091;-80
2022/07/29 00:32:22;;;;;;;11.65;2.97;;;11.20;99.90;;;10.00;100.00;101753.22;4912543;28;20034;-80
2022/07/29 00:37:32;;;;;;;8.77;2.20;;;11.10;99.90;;;9.97;100.00;101751.53;4906887;28;20128;-80
2022/07/29 00:40:07;;;;;;;8.93;2.80;;;11.10;99.90;;;9.93;100.00;101755.16;4904351;28;20043;-80
2022/07/29 00:42:53;;;;;;;12.50;2.92;;;11.10;99.90;;;9.93;100.00;101762.19;4939679;28;20039;-80
2022/07/29 00:45:25;;;;;;;11.90;3.10;;;11.00;99.90;;;9.89;100.00;101760.56;4944354;23;20778;-80
2022/07/29 00:47:50;;;;;;;8.40;2.25;;;11.10;99.90;;;9.91;100.00;101753.50;4941106;28;20805;-80
2022/07/29 00:50:17;;;;;;;10.40;2.55;;;11.10;99.90;;;9.91;100.00;101764.00;4970030;28;20045;-82
2022/07/29 00:52:43;;;;;;;11.55;2.58;;;11.10;99.90;;;9.95;100.00;101763.88;4937542;28;20092;-80
2022/07/29 00:55:15;;;;;;;7.38;2.20;;;11.10;99.90;;;10.03;100.00;101771.59;4941477;28;20045;-80
2022/07/29 00:57:43;;;;;;;11.73;2.70;;;11.20;99.90;;;10.08;100.00;101764.41;4949460;28;20044;-80
2022/07/29 01:00:21;;;;;;;8.30;2.67;;;11.20;99.90;;;10.15;100.00;101765.09;4956026;28;20462;-81
2022/07/29 01:02:50;;;;;;;9.23;2.70;;;11.30;99.90;;;10.12;100.00;101762.56;4957802;28;20041;-80
2022/07/29 01:05:24;;;;;;;8.32;2.28;;;11.20;99.90;;;10.08;100.00;101767.03;5000065;22;20045;-80
2022/07/29 01:07:54;;;;;;;10.93;2.50;;;11.20;99.90;;;10.00;100.00;101764.63;4975062;28;20095;-80
2022/07/29 01:10:28;;;;;;;9.90;2.55;;;11.10;99.90;;;9.95;100.00;101763.88;5002401;28;20057;-81
2022/07/29 01:12:58;;;;;;;8.73;2.33;;;11.10;99.90;;;9.86;100.00;101756.25;4919178;28;20076;-80
2022/07/29 01:15:24;;;;;;;5.88;2.50;;;11.00;99.90;;;9.78;100.00;101764.38;5001284;28;20029;-80
2022/07/29 01:18:25;;;;;;;8.80;2.47;;;10.90;99.90;;;9.69;100.00;101755.84;4969036;28;20405;-81
2022/07/29 01:21:32;;;;;;;13.07;2.90;;;10.80;99.90;;;9.58;100.00;101759.59;5005466;28;20147;-79
2022/07/29 01:26:59;;;;;;;12.30;2.65;;;10.60;99.90;;;9.48;100.00;101758.13;4993484;23;20685;-80
2022/07/29 01:29:45;;;;;;;8.27;2.85;;;10.60;99.90;;;9.53;100.00;101761.50;4966487;28;20047;-80
2022/07/29 01:32:18;;;;;;;12.90;2.88;;;10.70;99.90;;;9.54;100.00;101757.94;4978331;28;20030;-80
2022/07/29 01:35:17;;;;;;;11.20;3.15;;;10.70;99.90;;;9.53;100.00;101748.34;4978817;28;20091;-81
2022/07/29 01:38:27;;;;;;;8.90;3.15;;;10.70;99.90;;;9.63;100.00;101751.59;4977247;28;20116;-80
2022/07/29 01:41:09;;;;;;;12.55;3.00;;;10.80;99.90;;;9.65;100.00;101760.31;4872443;28;20039;-80
2022/07/29 01:44:12;;;;;;;11.45;3.15;;;10.80;99.90;;;9.66;100.00;101756.78;4850455;29;20089;-80
2022/07/29 01:46:43;;;;;;;7.07;2.80;;;10.80;99.90;;;9.70;100.00;101762.81;4932859;22;20113;-80
2022/07/29 01:49:15;;;;;;;15.50;3.88;;;10.80;99.90;;;9.70;100.00;101760.19;4949152;28;20122;-80
2022/07/29 01:52:13;;;;;;;13.68;3.40;;;10.90;99.90;;;9.77;100.00;101749.47;4946844;28;20038;-80
2022/07/29 01:55:02;;;;;;;10.93;2.97;;;10.90;99.90;;;9.82;100.00;101757.22;4956917;28;20591;-80
2022/07/29 01:57:31;;;;;;;11.55;3.30;;;10.90;99.90;;;9.80;100.00;101749.38;4930221;28;20039;-79
2022/07/29 02:00:04;;;;;;;13.25;3.53;;;10.90;99.90;;;9.79;100.00;101746.81;4944103;28;20046;-79
2022/07/29 02:02:31;;;;;;;9.07;3.85;;;10.90;99.90;;;9.77;100.00;101749.47;4939827;28;20047;-80
2022/07/29 02:05:00;;;;;;;10.43;3.30;;;10.90;99.90;;;9.75;100.00;101746.00;4961814;23;20046;-80
2022/07/29 02:07:31;;;;;;;14.18;4.07;;;10.90;99.90;;;9.74;100.00;101748.69;4944407;28;20121;-79
2022/07/29 02:09:58;;;;;;;6.95;2.92;;;10.90;99.90;;;9.77;100.00;101744.22;4941719;28;20037;-81
2022/07/29 02:12:25;;;;;;;11.82;3.42;;;10.90;99.90;;;9.70;100.00;101732.13;4948501;28;20052;-80
2022/07/29 02:14:56;;;;;;;6.38;2.90;;;10.90;99.90;;;9.72;100.00;101729.44;4971254;28;20116;-80
2022/07/29 02:17:31;;;;;;;13.73;3.30;;;10.80;99.90;;;9.70;100.00;101741.78;4950816;28;20053;-80
2022/07/29 02:20:07;;;;;;;10.85;2.97;;;10.80;99.90;;;9.65;100.00;101740.16;4958523;28;20046;-80
2022/07/29 02:22:46;;;;;;;9.55;3.22;;;10.80;99.90;;;9.64;100.00;101738.41;4977884;28;20070;-80
2022/07/29 02:25:13;;;;;;;12.48;3.25;;;10.80;99.90;;;9.58;100.00;101737.72;4942846;28;20034;-80
2022/07/29 02:27:41;;;;;;;9.38;3.40;;;10.80;99.90;;;9.59;100.00;101736.78;4982896;28;20042;-80
2022/07/29 02:30:12;;;;;;;8.13;3.28;;;10.80;99.90;;;9.60;100.00;101736.75;4993818;28;20029;-80
2022/07/29 02:32:40;;;;;;;13.65;3.22;;;10.80;99.90;;;9.57;100.00;101731.59;4973089;28;20055;-80
2022/07/29 02:35:08;;;;;;;7.38;2.97;;;10.80;99.90;;;9.63;100.00;101738.44;4980878;28;20405;-79
2022/07/29 02:37:45;;;;;;;10.65;3.22;;;10.80;99.90;;;9.63;100.00;101735.81;4981837;28;20065;-79
2022/07/29 02:40:14;;;;;;;10.13;3.30;;;10.80;99.90;;;9.61;100.00;101733.25;5003556;28;20034;-80
2022/07/29 02:42:46;;;;;;;6.32;3.15;;;10.80;99.90;;;9.65;100.00;101729.63;4935317;28;20131;-80
2022/07/29 02:45:11;;;;;;;9.55;2.80;;;10.80;99.90;;;9.67;100.00;101728.72;4957475;28;20828;-81
2022/07/29 02:47:45;;;;;;;6.13;2.70;;;10.90;99.90;;;9.71;100.00;101725.97;5005099;28;20555;-81
2022/07/29 02:50:29;;;;;;;12.10;3.15;;;10.90;99.90;;;9.76;100.00;101731.09;4967759;28;20068;-80
2022/07/29 02:53:12;;;;;;;11.73;3.13;;;10.90;99.90;;;9.78;100.00;101727.53;4995055;28;20029;-80
2022/07/29 02:55:47;;;;;;;12.45;3.28;;;10.90;99.90;;;9.75;100.00;101713.59;4929006;28;20108;-81
2022/07/29 02:58:28;;;;;;;14.52;2.97;;;10.90;99.90;;;9.77;100.00;101720.53;4990185;28;20049;-80
2022/07/29 03:01:03;;;;;;;17.60;3.40;;;10.90;99.90;;;9.77;100.00;101719.69;4999233;28;20037;-80
2022/07/29 03:03:33;;;;;;;8.57;2.85;;;10.90;99.90;;;9.76;100.00;101723.19;4966768;28;20493;-80
2022/07/29 03:06:02;;;;;;;11.75;3.55;;;10.90;99.90;;;9.76;100.00;101715.31;4942650;28;20041;-81
2022/07/29 03:08:32;;;;;;;8.05;3.10;;;10.90;99.90;;;9.71;100.00;101714.59;4946673;28;20033;-81
2022/07/29 03:11:01;;;;;;;14.27;2.80;;;10.80;99.90;;;9.73;100.00;101715.41;4956737;28;20030;-82
2022/07/29 03:13:29;;;;;;;11.75;2.83;;;10.80;99.90;;;9.77;100.00;101712.66;4976767;28;20095;-81
2022/07/29 03:15:57;;;;;;;10.35;2.63;;;10.90;99.90;;;9.82;100.00;101712.50;4967443;28;20079;-80
2022/07/29 03:18:28;;;;;;;6.45;2.53;;;10.90;99.90;;;9.85;100.00;101712.44;4980428;28;20031;-81
2022/07/29 03:20:54;;;;;;;8.75;2.47;;;10.90;99.90;;;9.91;100.00;101703.50;4991123;28;20556;-80
2022/07/29 03:23:23;;;;;;;7.32;2.63;;;11.00;99.90;;;9.96;100.00;101707.75;4985727;28;20133;-81
2022/07/29 03:25:59;;;;;;;8.20;2.53;;;11.00;99.90;;;10.00;100.00;101711.13;4978364;28;20033;-80
2022/07/29 03:28:27;;;;;;;12.50;2.60;;;11.10;99.90;;;10.06;100.00;101703.94;4964298;28;20056;-80
2022/07/29 03:30:53;;;;;;;14.85;2.80;;;11.20;99.90;;;10.17;100.00;101703.63;4951926;28;20034;-82
2022/07/29 03:33:19;;;;;;;9.02;2.75;;;11.20;99.90;;;10.22;100.00;101711.41;4980134;28;20038;-81
2022/07/29 03:35:45;;;;;;;10.52;2.70;;;11.20;99.90;;;10.26;100.00;101713.88;4959847;28;20117;-80
2022/07/29 03:38:13;;;;;;;9.55;2.85;;;11.30;99.90;;;10.32;100.00;101710.22;4961048;28;20132;-82
2022/07/29 03:40:52;;;;;;;6.75;2.97;;;11.40;99.90;;;10.43;100.00;101717.81;4969510;28;20042;-81
2022/07/29 03:43:23;;;;;;;8.10;2.97;;;11.50;99.90;;;10.56;100.00;101708.66;4944317;28;20045;-82
2022/07/29 03:45:54;;;;;;;10.05;2.80;;;11.60;99.90;;;10.68;100.00;101702.13;4970858;28;20124;-81
2022/07/29 03:48:25;;;;;;;6.82;2.50;;;11.70;99.90;;;10.79;100.00;101704.41;4960840;28;20037;-81
2022/07/29 03:50:51;;;;;;;7.25;2.67;;;11.70;99.90;;;10.85;100.00;101699.81;4945189;28;20065;-81
2022/07/29 03:53:18;;;;;;;7.60;2.80;;;11.80;99.90;;;10.93;100.00;101709.22;4943599;28;20053;-82
2022/07/29 03:55:48;;;;;;;8.75;2.42;;;11.90;99.90;;;11.01;100.00;101705.44;4974666;28;20049;-81
2022/07/29 03:58:15;;;;;;;8.32;2.30;;;11.90;99.90;;;11.13;100.00;101703.31;4943699;28;20057;-81
2022/07/29 04:00:43;;;;;;;9.50;2.72;;;12.00;99.90;;;11.26;100.00;101704.63;4967143;28;20096;-81
2022/07/29 04:03:10;;;;;;;6.57;2.30;;;12.20;99.90;;;11.38;100.00;101711.25;4949816;28;20037;-81
2022/07/29 04:05:36;;;;;;;11.15;2.42;;;12.30;99.90;;;11.51;100.00;101709.91;4961949;28;20042;-81
2022/07/29 04:08:02;;;;;;;11.75;2.60;;;12.50;99.90;;;11.86;100.00;101707.81;4964768;28;20068;-81
2022/07/29 04:10:35;;;;;;;8.77;2.33;;;13.40;99.90;;;13.08;100.00;101725.13;4988134;28;20076;-80
2022/07/29 04:13:01;;;;;;;11.55;2.63;;;14.70;99.90;;;14.42;94.49;101725.44;4983995;28;20041;-81
2022/07/29 04:15:28;;;;;;;7.63;2.80;;;15.40;99.90;;;15.11;88.21;101726.59;4972056;28;20367;-80
2022/07/29 04:18:04;;;;;;;4.97;2.47;;;15.50;99.90;;;15.01;85.41;101720.03;4950972;28;20061;-80
2022/07/29 04:20:30;;;;;;;8.32;2.63;;;15.40;99.90;;;14.71;86.33;101723.25;4958611;28;20037;-81
2022/07/29 04:22:55;;;;;;;;;;;15.30;99.90;;;14.56;87.59;101722.19;4976983;28;20489;-80
2022/07/29 04:25:21;;;;;;;11.57;2.38;;;15.20;99.90;;;14.41;88.01;101722.91;4961765;28;19925;-81
2022/07/29 04:28:01;;;;;;;;;;;15.10;99.90;;;14.44;89.10;101723.59;4978893;28;20033;-80
2022/07/29 04:30:34;;;;;;;8.00;2.42;;;15.20;99.90;;;14.69;88.80;101730.44;4969077;28;19922;-81
2022/07/29 04:33:02;;;;;;;13.15;2.63;;;15.40;99.90;;;15.13;88.46;101732.69;4962898;28;20037;-80
2022/07/29 04:35:29;;;;;;;9.13;2.60;;;15.70;99.90;;;15.47;86.86;101738.97;4939185;28;20034;-81
2022/07/29 04:38:04;;;;;;;7.25;2.47;;;16.10;99.90;;;16.20;84.41;101735.13;4956262;28;20035;-82
2022/07/29 04:40:30;;;;;;;4.85;2.17;;;;;;;17.28;80.18;101739.72;4969263;28;20121;-81
2022/07/29 04:42:56;;;;;;;5.43;2.55;;;17.50;99.90;;;18.08;77.18;101737.59;4978586;28;20048;-80
2022/07/29 04:45:22;;;;;;;10.65;2.40;;;18.50;99.90;;;19.59;71.89;101749.13;4973003;28;20036;-81
2022/07/29 04:47:56;;;;;;;8.07;2.83;;;19.40;99.90;;;20.96;66.85;101750.16;4950978;28;20138;-81
2022/07/29 04:50:22;;;;;;;7.72;2.47;;;20.50;99.90;;;21.94;63.83;101745.34;4971612;28;20604;-81
2022/07/29 04:52:48;;;;;;;11.63;2.30;;;21.40;99.90;;;23.08;60.48;101749.66;4984741;28;20050;-79
2022/07/29 04:55:17;;;;;;;9.63;1.90;;;22.30;99.90;;;24.07;58.05;101759.09;4973066;28;20457;-79
2022/07/29 04:57:45;;;;;;;8.13;2.03;;;22.40;99.90;;;25.42;54.48;101762.25;4962546;28;20383;-79
2022/07/29 05:00:11;;;;;;;9.70;2.42;;;24.10;99.90;;;26.19;53.05;101771.16;5009458;28;20030;-79
2022/07/29 05:02:37;;;;;;;12.13;2.03;;;25.00;99.90;;;27.32;50.78;101779.88;4978117;28;20401;-79
2022/07/29 05:05:04;;;;;;;;;;;25.80;99.90;;;28.46;50.06;101774.34;4937895;28;20120;-80
2022/07/29 05:07:29;;;;;;;5.15;1.73;;;26.30;98.90;;;28.37;47.88;101769.91;4984848;28;20384;-79
2022/07/29 05:09:56;;;;;;;;;;;26.30;99.60;;;26.58;50.03;101766.44;4993048;28;20038;-79
2022/07/29 05:12:25;;;;;;;6.65;2.22;;;25.70;98.10;;;26.18;51.89;101764.06;4959383;28;20009;-80
2022/07/29 05:14:51;;;;;;;8.48;2.20;;;25.10;98.70;;;25.02;54.19;101762.38;4987360;28;20085;-79
2022/07/29 05:17:17;;;;;;;7.07;2.22;;;24.40;99.30;;;24.04;56.18;101764.75;4921222;28;20035;-79
2022/07/29 05:19:42;;;;;;;10.52;2.20;;;23.70;99.90;;;22.99;59.44;101767.34;4950323;28;20063;-79
2022/07/29 05:22:08;;;;;;;13.13;2.63;;;22.90;99.90;;;21.83;62.22;101762.28;4981198;28;20116;-79
2022/07/29 05:24:34;;;;;;;;;;;22.60;99.90;;;21.91;62.85;101759.88;4971117;28;20041;-79
2022/07/29 05:27:09;;;;;;;8.93;2.25;;;21.90;99.90;;;21.37;64.53;101759.59;4982938;28;20278;-79
2022/07/29 05:29:35;;;;;;;7.53;2.20;;;21.70;99.90;;;22.06;63.82;101760.50;4943162;28;20088;-79
2022/07/29 05:32:01;;;;;;;7.57;2.10;;;22.00;99.90;;;23.02;60.69;101769.78;4985494;28;20058;-79
2022/07/29 05:34:32;;;;;;;5.82;2.03;;;22.40;99.90;;;23.76;58.41;101766.31;4942500;28;20124;-79
2022/07/29 05:36:58;;;;;;;7.45;1.98;;;22.80;99.90;;;24.40;56.66;101764.31;4964210;28;20122;-78
2022/07/29 05:39:24;;;;;;;7.10;2.10;;;23.50;99.90;;;25.70;54.03;101774.00;4966750;28;20136;-78
2022/07/29 05:41:49;;;;;;;;;;;23.80;99.90;;;25.22;54.09;101769.47;4969462;28;20517;-79
2022/07/29 05:44:15;;;;;;;13.05;2.35;;;24.10;99.90;;;25.26;54.87;101770.06;4977744;28;19917;-79
2022/07/29 05:46:41;;;;;;;11.27;2.15;;;24.00;99.90;;;24.96;55.53;101767.31;5000406;28;20107;-80
2022/07/29 05:49:12;;;;;;;8.77;2.17;;;24.30;99.90;;;25.72;53.87;101776.53;4951317;28;20077;-79
2022/07/29 05:51:37;;;;;;;9.02;2.17;;;24.30;99.90;;;25.20;54.77;101778.69;4945250;28;20051;-80
2022/07/29 05:54:03;;;;;;;8.20;2.20;;;24.50;99.90;;;25.75;53.94;101784.34;4952053;28;20116;-80
2022/07/29 05:56:29;;;;;;;;;;;24.40;99.90;;;25.73;53.63;101787.16;4968403;28;20037;-80
2022/07/29 05:58:55;;;;;;;8.05;2.00;;;24.80;99.90;;;26.39;52.23;101780.88;4978018;28;20489;-79
2022/07/29 06:01:20;;;;;;;7.20;1.88;;;25.30;99.90;;;26.92;51.42;101786.56;4981821;28;20095;-80
2022/07/29 06:03:51;;;;;;;;;;;25.70;99.90;;;27.55;50.00;101791.03;4964502;28;20582;-79
2022/07/29 06:06:17;;;;;;;5.38;1.80;;;26.30;99.20;;;28.62;48.21;101785.28;4985536;28;19957;-79
2022/07/29 06:08:43;;;;;;;8.63;2.13;;;27.00;98.20;;;29.35;46.89;101793.72;4943385;28;20117;-79
2022/07/29 06:11:08;;;;;;;;;;;27.10;98.90;;;28.98;45.62;101795.00;4969791;28;20802;-80
2022/07/29 06:13:34;;;;;;;14.00;2.03;;;26.90;96.90;;;27.81;49.02;101791.06;4968895;28;19963;-79
2022/07/29 06:16:00;;;;;;;5.13;1.58;;;26.70;96.50;;;26.83;50.47;101792.91;4963013;28;20502;-80
2022/07/29 06:18:26;;;;;;;;;;;26.80;96.60;;;27.30;49.60;101793.56;4991415;28;20041;-79
2022/07/29 06:20:57;;;;;;;6.25;1.92;;;26.40;96.80;;;26.46;51.91;101785.66;4970802;28;19937;-79
2022/07/29 06:23:23;;;;;;;6.20;1.95;;;26.10;97.60;;;26.63;51.96;101784.91;4950940;28;21202;-79
2022/07/29 06:25:48;;;;;;;6.60;1.92;;;26.60;97.20;;;27.76;49.13;101802.38;4985248;28;20076;-79
2022/07/29 06:28:14;;;;;;;7.38;2.25;;;26.60;96.90;;;27.13;50.33;101797.09;4975943;28;20038;-79
2022/07/29 06:30:40;;;;;;;8.32;2.10;;;26.80;97.10;;;26.84;50.57;101800.81;4968113;28;20029;-79
2022/07/29 06:33:06;;;;;;;;;;;25.80;96.80;;;23.94;55.68;101790.75;4939839;28;20037;-79
2022/07/29 06:35:38;;;;;;;10.07;2.22;;;25.30;98.00;;;23.98;57.99;101788.66;4981756;28;20300;-80
2022/07/29 06:38:04;;;;;;;7.93;2.20;;;24.40;99.10;;;22.92;60.95;101783.13;4992936;28;20415;-79
2022/07/29 06:43:22;;;;;;;10.38;1.67;;;23.50;99.90;;;22.70;61.81;101784.03;4962473;28;20584;-79
2022/07/29 06:45:47;;;;;;;5.18;1.80;;;23.30;99.90;;;22.56;62.65;101768.19;4969979;28;20054;-79
2022/07/29 06:48:13;;;;;;;6.25;1.83;;;22.80;99.90;;;21.83;63.88;101774.84;4968994;28;20048;-79
2022/07/29 06:50:39;;;;;;;;;;;22.80;99.90;;;22.00;64.00;101771.69;4946176;28;20058;-79
2022/07/29 06:53:05;;;;;;;8.60;1.70;;;22.60;99.90;;;22.01;64.74;101773.41;4972368;28;19913;-79
2022/07/29 06:55:36;;;;;;;10.00;2.10;;;22.60;99.90;;;22.16;64.24;101763.31;4978906;28;20046;-80
2022/07/29 06:58:02;;;;;;;7.13;2.13;;;22.60;99.90;;;21.83;64.67;101761.44;4997780;28;20132;-79
2022/07/29 07:00:28;;;;;;;5.03;1.90;;;22.50;99.90;;;21.99;65.04;101771.84;4951622;28;20454;-79
2022/07/29 07:02:53;;;;;;;12.85;2.20;;;22.50;99.90;;;22.12;64.60;101764.53;4953442;28;20050;-79
2022/07/29 07:05:19;;;;;;;;;;;22.60;99.90;;;22.45;63.80;101762.84;4965442;28;20034;-79
2022/07/29 07:07:45;;;;;;;7.75;1.80;;;22.90;99.90;;;23.09;61.95;101764.78;4972192;28;19927;-79
2022/07/29 07:10:15;;;;;;;7.60;2.25;;;23.40;99.90;;;24.55;58.46;101765.69;4958901;28;20038;-79
2022/07/29 07:12:41;;;;;;;7.90;1.88;;;24.70;99.90;;;26.40;53.42;101752.03;4951092;28;20112;-79
2022/07/29 07:15:07;;;;;;;11.77;2.10;;;25.60;98.50;;;26.07;52.68;101767.81;4983490;28;20562;-79
2022/07/29 07:17:33;;;;;;;5.30;1.80;;;26.10;97.70;;;26.63;51.91;101757.91;4957297;28;20050;-79
2022/07/29 07:19:59;;;;;;;4.47;1.88;;;26.90;97.20;;;27.73;49.58;101769.34;4985932;28;20112;-79
2022/07/29 07:22:25;;;;;;;10.75;1.75;;;27.70;96.10;;;28.62;47.77;101763.59;4958549;28;20050;-78
2022/07/29 07:24:53;;;;;;;6.28;1.70;;;28.50;94.90;;;28.94;46.83;101764.69;5003278;28;20061;-80
2022/07/29 07:27:21;;;;;;;7.95;1.75;;;29.40;94.70;;;30.20;45.41;101775.09;4969548;28;20045;-79
2022/07/29 07:29:47;;;;;;;11.13;1.98;;;29.70;92.80;;;29.91;44.63;101770.25;4953877;28;20034;-79
2022/07/29 07:32:13;;;;;;;8.27;1.83;;;29.80;92.40;;;29.44;44.73;101771.84;4970614;28;20797;-78
2022/07/29 07:34:39;;;;;;;8.00;1.80;;;29.40;92.40;;;28.49;47.32;101759.63;4961559;28;20044;-78
2022/07/29 07:37:05;;;;;;;5.45;1.63;;;29.10;91.90;;;28.04;47.66;101766.22;4998637;28;20025;-79
2022/07/29 07:39:38;;;;;;;7.13;1.50;;;28.70;92.90;;;27.49;48.39;101765.47;5005594;28;20088;-78
2022/07/29 07:42:04;;;;;;;8.48;1.80;;;28.20;92.80;;;27.07;49.33;101766.09;4965412;28;20065;-80
2022/07/29 07:44:30;;;;;;;7.70;1.77;;;27.90;93.50;;;27.25;49.22;101768.81;4969252;28;20029;-79
2022/07/29 07:46:56;;;;;;;4.90;1.48;;;27.70;94.10;;;27.46;48.57;101771.19;4961579;28;20037;-79
2022/07/29 07:49:22;;;;;;;14.77;2.10;;;28.10;94.00;;;28.39;47.20;101776.84;4986635;28;20064;-79
2022/07/29 07:51:53;;;;;;;7.00;1.80;;;28.70;93.10;;;29.18;45.47;101784.72;4983758;28;20229;-79
2022/07/29 07:54:18;;;;;;;5.32;1.65;;;29.30;92.20;;;29.72;43.59;101778.78;4965844;28;20041;-79
2022/07/29 07:56:44;;;;;;;8.05;2.17;;;29.40;91.40;;;29.25;44.46;101777.63;4980676;28;20391;-79
2022/07/29 07:59:10;;;;;;;9.68;1.85;;;29.70;91.90;;;29.85;44.16;101785.41;4938146;28;20034;-79
2022/07/29 08:01:36;;;;;;;5.55;1.95;;;30.00;91.50;;;29.82;44.04;101788.44;4958979;28;20164;-79
2022/07/29 08:04:01;;;;;;;4.68;1.52;;;29.90;89.60;;;28.91;44.60;101780.44;4957767;28;20026;-78
2022/07/29 08:06:33;;;;;;;4.15;1.42;;;29.40;90.40;;;28.45;45.41;101780.78;4990075;23;20116;-79
2022/07/29 08:08:59;;;;;;;8.57;1.80;;;28.80;90.80;;;28.01;46.40;101780.88;5000660;28;20460;-80
2022/07/29 08:11:26;;;;;;;8.98;2.15;;;28.60;91.70;;;28.08;45.76;101776.56;5037625;28;20067;-79
2022/07/29 08:13:52;;;;;;;6.80;1.70;;;28.60;91.50;;;28.05;45.89;101778.72;4991417;28;20052;-79
2022/07/29 08:16:21;;;;;;;6.53;1.73;;;28.40;91.50;;;27.89;46.40;101780.31;4994032;28;20713;-79
2022/07/29 08:18:48;;;;;;;4.90;1.40;;;28.30;91.40;;;27.48;46.14;101782.72;4984591;28;20081;-79
2022/07/29 08:21:15;;;;;;;5.05;1.70;;;28.00;91.10;;;27.47;46.57;101782.88;5004119;28;20033;-79
2022/07/29 08:23:52;;;;;;;5.47;1.70;;;28.10;91.50;;;27.88;45.61;101783.19;4984383;28;20049;-79
2022/07/29 08:26:22;;;;;;;;;;;28.20;92.00;;;27.20;44.68;101777.38;4976373;23;20038;-78
2022/07/29 08:28:55;;;;;;;5.32;1.63;;;27.90;90.80;;;27.18;46.01;101779.38;4972967;28;19925;-79
2022/07/29 08:31:21;;;;;;;6.55;2.05;;;27.60;91.40;;;26.90;46.80;101772.34;4949485;28;20118;-79
2022/07/29 08:33:48;;;;;;;6.95;1.67;;;27.40;91.70;;;26.73;47.84;101771.34;4947162;28;20035;-78
2022/07/29 08:36:16;;;;;;;12.70;1.70;;;26.70;91.30;;;25.53;48.33;101770.19;4973863;28;20058;-79
2022/07/29 08:38:46;;;;;;;13.15;1.55;;;26.30;92.40;;;25.38;48.87;101777.00;4962075;28;20415;-78
2022/07/29 08:41:12;;;;;;;8.82;1.92;;;25.90;92.30;;;25.08;49.77;101759.09;4938720;28;20129;-79
2022/07/29 08:43:40;;;;;;;10.35;1.60;;;25.40;92.20;;;24.42;50.21;101752.44;4985501;28;20573;-79
2022/07/29 08:46:07;;;;;;;14.80;1.75;;;25.20;92.90;;;24.24;50.85;101752.25;4973361;28;20038;-78
2022/07/29 08:48:41;;;;;;;8.43;1.60;;;24.90;93.60;;;24.12;51.51;101751.47;4965164;28;20038;-78
2022/07/29 08:51:12;;;;;;;9.48;1.73;;;24.60;93.20;;;23.74;51.71;101749.41;4976177;28;20489;-78
2022/07/29 08:53:48;;;;;;;7.53;1.50;;;24.40;93.40;;;23.58;51.73;101757.94;4943992;28;20518;-80
2022/07/29 08:56:22;;;;;;;13.40;1.83;;;24.10;93.90;;;23.24;52.55;101743.81;4951905;28;20053;-79
2022/07/29 08:58:49;;;;;;;8.45;1.55;;;24.10;94.50;;;23.55;52.77;101745.63;4982317;28;20034;-79
2022/07/29 09:01:21;;;;;;;4.47;1.50;;;24.40;94.30;;;24.32;51.08;101757.78;4954420;28;20551;-79
2022/07/29 09:03:54;;;;;;;4.13;1.30;;;25.00;93.50;;;24.91;49.62;101753.41;4978638;28;20387;-78
2022/07/29 09:06:22;;;;;;;6.55;1.60;;;25.40;93.70;;;25.41;49.37;101749.75;5007534;23;20038;-78
2022/07/29 09:08:48;;;;;;;4.55;1.20;;;25.90;92.80;;;25.33;47.45;101774.72;4961160;28;20082;-79
2022/07/29 09:11:17;;;;;;;4.05;1.45;;;25.80;91.90;;;25.03;47.47;101754.13;4963689;28;20042;-78
2022/07/29 09:13:46;;;;;;;7.70;1.58;;;25.90;92.40;;;25.60;48.40;101764.22;4953118;28;20025;-79
2022/07/29 09:16:15;;;;;;;7.80;1.52;;;26.10;92.00;;;25.63;47.48;101753.13;4962375;28;20049;-78
2022/07/29 09:18:49;;;;;;;9.27;1.50;;;26.30;92.20;;;26.13;46.45;101756.41;4937407;28;20033;-78
2022/07/29 09:24:13;;;;;;;5.60;1.30;;;26.60;92.20;;;26.65;44.45;101766.66;4946979;28;20442;-77
2022/07/29 09:26:48;;;;;;;2.15;1.05;;;27.00;89.20;;;26.01;44.03;101768.38;4969836;23;20096;-79
2022/07/29 09:29:28;;;;;;;6.28;1.35;;;26.70;88.60;;;25.72;45.50;101760.34;4993733;28;20031;-78
2022/07/29 09:31:57;;;;;;;5.60;1.52;;;26.40;88.40;;;25.55;45.65;101767.31;5024147;28;20030;-79
2022/07/29 09:34:29;;;;;;;4.00;1.25;;;26.20;90.20;;;25.28;45.76;101765.38;4983376;28;20104;-78
2022/07/29 09:36:56;;;;;;;4.25;1.23;;;26.10;88.10;;;25.24;44.53;101770.19;4956634;28;20034;-79
2022/07/29 09:39:45;;;;;;;5.80;1.80;;;25.80;90.00;;;24.97;46.30;101760.09;4949483;28;20093;-78
2022/07/29 09:42:27;;;;;;;5.30;1.58;;;25.80;90.80;;;25.08;46.96;101761.81;4936730;28;20482;-80
2022/07/29 09:44:57;;;;;;;8.82;1.30;;;25.80;91.50;;;25.20;47.08;101757.16;4965099;23;20046;-79
2022/07/29 09:47:47;;;;;;;5.13;1.40;;;25.80;90.80;;;25.10;46.47;101763.34;4958995;28;20458;-77
2022/07/29 09:50:19;;;;;;;7.03;1.70;;;25.80;90.60;;;25.10;46.62;101757.97;4959639;28;20124;-77
2022/07/29 09:52:51;;;;;;;4.95;1.55;;;25.70;91.10;;;24.83;47.69;101755.09;4944543;28;20043;-78
2022/07/29 09:55:21;;;;;;;14.45;1.60;;;25.30;91.40;;;24.28;48.64;101750.97;4950179;28;20031;-77
2022/07/29 09:57:48;;;;;;;9.73;1.48;;;25.30;91.60;;;24.54;48.34;101751.38;4964199;28;20045;-76
2022/07/29 10:00:22;;;;;;;4.65;1.58;;;25.20;92.10;;;24.57;48.93;101752.94;4983239;28;20034;-77
2022/07/29 10:02:51;;;;;;;6.03;1.27;;;25.30;92.30;;;24.58;49.14;101751.97;4943254;28;20038;-77
2022/07/29 10:05:28;;;;;;;11.43;1.52;;;25.20;92.60;;;24.44;49.42;101750.47;4990983;28;20046;-77
2022/07/29 10:08:01;;;;;;;4.47;1.55;;;25.10;92.30;;;24.36;49.95;101748.47;4975021;28;20129;-77
2022/07/29 10:10:34;;;;;;;5.95;1.23;;;25.00;93.10;;;24.54;50.13;101746.00;4949442;28;20042;-77
2022/07/29 10:13:10;;;;;;;5.00;1.08;;;24.90;92.60;;;24.00;50.07;101730.19;5003778;28;20083;-78
2022/07/29 10:15:42;;;;;;;4.03;1.20;;;24.80;92.80;;;23.98;50.12;101738.41;4969738;28;20038;-77
2022/07/29 10:18:19;;;;;;;6.25;1.70;;;24.80;92.90;;;24.02;50.26;101742.53;5006202;28;20084;-77
2022/07/29 10:20:49;;;;;;;7.45;1.85;;;24.80;93.10;;;24.15;50.14;101736.91;5004199;28;20054;-77
2022/07/29 10:23:22;;;;;;;5.32;1.40;;;24.80;93.00;;;24.08;50.65;101724.97;4982708;28;20038;-77
2022/07/29 10:25:51;;;;;;;15.70;2.25;;;24.80;92.80;;;24.12;50.47;101719.19;4947238;28;20049;-77
2022/07/29 10:28:18;;;;;;;4.88;1.27;;;24.80;93.10;;;24.01;50.52;101721.13;4983673;28;20056;-78
2022/07/29 10:31:02;;;;;;;5.65;1.67;;;24.80;93.00;;;24.20;50.22;101731.97;5011476;28;20044;-80
2022/07/29 10:33:36;;;;;;;4.32;1.30;;;24.80;93.40;;;24.21;50.78;101722.94;4946164;28;20053;-79
2022/07/29 10:36:36;;;;;;;6.78;1.48;;;24.80;93.50;;;24.38;50.31;101723.25;4993645;28;20049;-80